Peotone Weather

Nearby METAR Reports

 

KIGQ - Lansing, Illinois, USA
Distance from station: NE 19mi, 30km
Updated: Thu, 02-Feb-2023 5:15am CST
Clear
Clear
 Wind from SW
Wind: SW 8 mph , 13 km/h
Temperature: 19°F , -7°C
Wind Chill: 9°F , -13°C
Dew Point: 14°F , -10°C
Humidity: 79%
Barometer: 30.15 inHg , 1021 hPa
Clouds: Clear
Visibility: 10 miles , 16 km
2023/02/02 11:15 KIGQ 021115Z AUTO 22007KT 10SM CLR M07/M10 A3015 RMK AO2 T10701105
KIKK - Kankakee, Illinois, USA
Distance from station: S 19mi, 30km
Updated: Thu, 02-Feb-2023 5:15am CST
Clear
Clear
 Wind from SW
Wind: SW 9 mph , 15 km/h
Temperature: 19°F , -7°C
Wind Chill: 8°F , -13°C
Dew Point: 12°F , -11°C
Humidity: 73%
Barometer: 30.17 inHg , 1021.7 hPa
Clouds: Clear
Visibility: 10 miles , 16 km
2023/02/02 11:15 KIKK 021115Z AUTO 23008KT 10SM CLR M07/M11 A3017 RMK AO2 T10721109
 
KSJC - Joliet, Illinois, USA
Distance from station: WNW 24mi, 38km
Updated: Wed, 01-Feb-2023 6:53pm CST
NOT Current
Overcast
Overcast
 Wind from NNW
Wind: NNW 7 mph , 11 km/h
Temperature: 57°F , 14°C
Dew Point: 36°F , 2°C
Humidity: 44%
Barometer: 30.18 inHg , 1022 hPa
Clouds: Overcast
Visibility: 10 miles , 16 km
Cloud details: Partly cloudy 18000 ft
Overcast 25000 ft
2023/02/02 00:53 KSJC 020053Z 34006KT 10SM SCT180 OVC250 14/02 A3018 RMK AO2 SLP219 T01390017
KLOT - Romeoville, Illinois, USA
Distance from station: NW 26mi, 41km
Updated: Thu, 02-Feb-2023 5:15am CST
Clear
Clear
 Wind from SSW
Wind: SSW 8 mph , 13 km/h
Temperature: 21°F , -6°C
Wind Chill: 11°F , -12°C
Dew Point: 14°F , -10°C
Humidity: 74%
Barometer: 30.14 inHg , 1020.7 hPa
Clouds: Clear
Visibility: 10 miles , 16 km
2023/02/02 11:15 KLOT 021115Z AUTO 21007KT 10SM CLR M06/M10 A3014 RMK AO2
 
KMDW - Midway Airport Chicago, Illinois, USA
Distance from station: N 31mi, 50km
Updated: Thu, 02-Feb-2023 4:53am CST
Clear
Clear
 Wind from SW
Wind: SW 10 mph , 17 km/h
Temperature: 21°F , -6°C
Wind Chill: 10°F , -12°C
Dew Point: 12°F , -11°C
Humidity: 68%
Barometer: 30.13 inHg , 1020.3 hPa
Clouds: Clear
Visibility: 10 miles , 16 km
2023/02/02 10:53 KMDW 021053Z 22009KT 10SM CLR M06/M11 A3013 RMK AO2 SLP218 T10611111 $
KC09 - Morris, Illinois, USA
Distance from station: W 34mi, 54km
Updated: Thu, 02-Feb-2023 5:15am CST
Clear
Clear
 Wind from SW
Wind: SW 6 mph , 9 km/h
Temperature: 19°F , -7°C
Wind Chill: 11°F , -12°C
Dew Point: 12°F , -11°C
Humidity: 73%
Barometer: 30.13 inHg , 1020.3 hPa
Clouds: Clear
Visibility: 10 miles , 16 km
2023/02/02 11:15 KC09 021115Z AUTO 23005KT 10SM CLR M07/M11 A3013 RMK AO2 T10701108

Metar display script from Saratoga-Weather.org